Parker City, IN (47368)

6:20 PM EST on February 06, 2016 (GMT -0500)
Clyde Weems Memorial Observation Station | | Change Station
CLOSE
Current Station
Personal Weather Station
Location: Mount Pleasant, IN
Elevation: 1030 ft
Nearby Weather Stations

Elev 1030 ft 40.09 °N, 85.31 °W | Updated 22 seconds ago

Clear
Clear
37.4 °F
Feels Like 37 °F
N
0.0
Wind Variable Wind from SSW
Gusts 1.0 mph

Today
High -- | Low -- °F
--% Chance of Precip.
Yesterday
High -- | Low -- °F
Precip. -- in
Pressure 30.23 in
Visibility 10.0 miles
Clouds Clear
Windchill 37 °F
Dew Point 28 °F
Humidity 67%
Rainfall 0.00 in
Snow Depth Not available.
7:45 AM 6:05 PM
Waning Crescent, 4% visible
METAR KMIE 062253Z 21007KT 10SM CLR 05/M04 A3021 RMK AO2 SLP237 T00501044
Pressure 30.23 in
Visibility 10.0 miles
Clouds Clear
Windchill 37 °F
Dew Point 28 °F
Humidity 67%
Rainfall 0.00 in
Snow Depth Not available.
7:45 AM 6:05 PM
Waning Crescent, 4% visible
METAR KMIE 062253Z 21007KT 10SM CLR 05/M04 A3021 RMK AO2 SLP237 T00501044

10-Day Weather Forecast

Almanac

Astronomy

Feb. 06, 2016 Rise Set
Actual Time
Civil Twilight
Nautical Twilight
Astronomical Twilight
Moon
Length of Visible Light
Length of Day
Tomorrow will be .
, % of the Moon is Illuminated

Today's Extremes

State Highs State Lows

Community

WunderPhotos

Upload Photos

1,891,092 photos uploaded!

WunderBlog® & News

Nearby

Air Quality

  Air Quality AQ Index Pollutant
Not available.

Snow Depth

Station Depth Elevation

Earthquake Activity

City Distance Mag. Time & Date
Minimum magnitude displayed is 2.5.

Coastal Water Temperatures

Place Temperature

Stations

Nearby Weather Stations

Station Location Temp. Windchill Dew Point Humidity Wind Precip. Elev Updated Type
                   

Watches & Warnings

There are currently no watches in effect.